sensor_id;sensor_type;location;lat;lon;timestamp;pressure;altitude;pressure_sealevel;temperature;humidity
7836;BME280;3963;42.658;23.298;2023-03-01T00:01:00;58852.00;;;5.45;100.00
7836;BME280;3963;42.658;23.298;2023-03-01T00:03:28;58783.50;;;5.39;100.00
7836;BME280;3963;42.658;23.298;2023-03-01T00:05:55;58840.41;;;5.37;100.00
7836;BME280;3963;42.658;23.298;2023-03-01T00:08:21;58790.13;;;5.38;100.00
7836;BME280;3963;42.658;23.298;2023-03-01T00:10:48;58813.69;;;5.36;100.00
7836;BME280;3963;42.658;23.298;2023-03-01T00:13:15;58807.06;;;5.37;100.00
7836;BME280;3963;42.658;23.298;2023-03-01T00:15:42;58781.31;;;5.34;100.00
7836;BME280;3963;42.658;23.298;2023-03-01T00:18:10;58787.84;;;5.31;100.00
7836;BME280;3963;42.658;23.298;2023-03-01T00:20:37;58775.44;;;5.29;100.00
7836;BME280;3963;42.658;23.298;2023-03-01T00:23:03;58753.88;;;5.28;100.00
7836;BME280;3963;42.658;23.298;2023-03-01T00:25:30;58828.28;;;5.28;100.00
7836;BME280;3963;42.658;23.298;2023-03-01T00:27:57;58764.06;;;5.11;100.00
7836;BME280;3963;42.658;23.298;2023-03-01T00:30:24;58795.66;;;5.19;100.00
7836;BME280;3963;42.658;23.298;2023-03-01T00:32:51;58737.69;;;5.20;100.00
7836;BME280;3963;42.658;23.298;2023-03-01T00:35:19;58770.00;;;5.19;100.00
7836;BME280;3963;42.658;23.298;2023-03-01T00:37:48;58770.94;;;5.17;100.00
7836;BME280;3963;42.658;23.298;2023-03-01T00:40:18;58787.50;;;5.21;100.00
7836;BME280;3963;42.658;23.298;2023-03-01T00:42:45;58776.97;;;5.13;100.00
7836;BME280;3963;42.658;23.298;2023-03-01T00:45:12;58792.38;;;5.13;100.00
7836;BME280;3963;42.658;23.298;2023-03-01T00:47:38;58770.88;;;5.15;100.00
7836;BME280;3963;42.658;23.298;2023-03-01T00:50:06;58780.59;;;5.14;100.00
7836;BME280;3963;42.658;23.298;2023-03-01T00:52:34;58771.94;;;5.16;100.00
7836;BME280;3963;42.658;23.298;2023-03-01T00:55:01;58779.97;;;5.11;100.00
7836;BME280;3963;42.658;23.298;2023-03-01T00:57:28;58757.25;;;5.07;100.00
7836;BME280;3963;42.658;23.298;2023-03-01T00:59:55;58767.16;;;5.11;100.00
7836;BME280;3963;42.658;23.298;2023-03-01T01:02:22;58742.31;;;5.05;100.00
7836;BME280;3963;42.658;23.298;2023-03-01T01:04:49;58758.41;;;5.10;100.00
7836;BME280;3963;42.658;23.298;2023-03-01T01:07:16;58753.19;;;5.08;100.00
7836;BME280;3963;42.658;23.298;2023-03-01T01:09:46;58766.53;;;5.08;100.00
7836;BME280;3963;42.658;23.298;2023-03-01T01:12:13;58760.00;;;5.12;100.00
7836;BME280;3963;42.658;23.298;2023-03-01T01:14:40;58741.41;;;5.09;100.00
7836;BME280;3963;42.658;23.298;2023-03-01T01:17:07;58759.72;;;5.19;100.00
7836;BME280;3963;42.658;23.298;2023-03-01T01:19:33;58789.28;;;5.13;100.00
7836;BME280;3963;42.658;23.298;2023-03-01T01:22:00;58758.94;;;5.11;100.00
7836;BME280;3963;42.658;23.298;2023-03-01T01:24:27;58775.81;;;5.10;100.00
7836;BME280;3963;42.658;23.298;2023-03-01T01:26:55;58801.75;;;5.17;100.00
7836;BME280;3963;42.658;23.298;2023-03-01T01:29:22;58767.88;;;5.17;100.00
7836;BME280;3963;42.658;23.298;2023-03-01T01:31:49;58798.66;;;5.17;100.00
7836;BME280;3963;42.658;23.298;2023-03-01T01:34:17;58752.28;;;5.12;100.00
7836;BME280;3963;42.658;23.298;2023-03-01T01:36:47;58766.81;;;5.16;100.00
7836;BME280;3963;42.658;23.298;2023-03-01T01:39:15;58768.22;;;5.12;100.00
7836;BME280;3963;42.658;23.298;2023-03-01T01:41:43;58803.44;;;5.21;100.00
7836;BME280;3963;42.658;23.298;2023-03-01T01:44:17;58791.75;;;5.25;100.00
7836;BME280;3963;42.658;23.298;2023-03-01T01:46:47;58775.13;;;5.19;100.00
7836;BME280;3963;42.658;23.298;2023-03-01T01:49:21;58789.72;;;5.25;100.00
7836;BME280;3963;42.658;23.298;2023-03-01T01:51:53;58803.59;;;5.12;100.00
7836;BME280;3963;42.658;23.298;2023-03-01T01:54:27;58764.31;;;5.18;100.00
7836;BME280;3963;42.658;23.298;2023-03-01T01:56:59;58766.44;;;5.20;100.00
7836;BME280;3963;42.658;23.298;2023-03-01T01:59:30;58766.44;;;5.20;100.00
7836;BME280;3963;42.658;23.298;2023-03-01T02:02:00;58749.28;;;5.14;100.00
7836;BME280;3963;42.658;23.298;2023-03-01T02:04:29;58762.00;;;5.26;100.00
7836;BME280;3963;42.658;23.298;2023-03-01T02:07:00;58739.47;;;5.12;100.00
7836;BME280;3963;42.658;23.298;2023-03-01T02:09:28;58822.38;;;5.34;100.00
7836;BME280;3963;42.658;23.298;2023-03-01T02:11:56;58756.38;;;5.25;100.00
7836;BME280;3963;42.658;23.298;2023-03-01T02:14:23;58795.09;;;5.33;100.00
7836;BME280;3963;42.658;23.298;2023-03-01T02:16:53;58813.69;;;5.36;100.00
7836;BME280;3963;42.658;23.298;2023-03-01T02:19:28;58825.38;;;5.32;100.00
7836;BME280;3963;42.658;23.298;2023-03-01T02:22:02;58781.75;;;5.32;100.00
7836;BME280;3963;42.658;23.298;2023-03-01T02:24:39;58756.78;;;5.23;100.00
7836;BME280;3963;42.658;23.298;2023-03-01T02:27:10;58818.47;;;5.26;100.00
7836;BME280;3963;42.658;23.298;2023-03-01T02:29:39;58794.84;;;5.25;100.00
7836;BME280;3963;42.658;23.298;2023-03-01T02:32:06;58821.66;;;5.29;100.00
7836;BME280;3963;42.658;23.298;2023-03-01T02:34:32;58807.16;;;5.25;100.00
7836;BME280;3963;42.658;23.298;2023-03-01T02:37:02;58766.72;;;5.28;100.00
7836;BME280;3963;42.658;23.298;2023-03-01T02:39:32;58779.97;;;5.26;100.00
7836;BME280;3963;42.658;23.298;2023-03-01T02:42:01;58780.25;;;5.19;100.00
7836;BME280;3963;42.658;23.298;2023-03-01T02:44:29;58762.22;;;5.16;100.00
7836;BME280;3963;42.658;23.298;2023-03-01T02:47:01;58783.44;;;5.22;100.00
7836;BME280;3963;42.658;23.298;2023-03-01T02:49:30;58784.84;;;5.18;100.00
7836;BME280;3963;42.658;23.298;2023-03-01T02:52:20;58754.94;;;5.14;100.00
7836;BME280;3963;42.658;23.298;2023-03-01T02:54:52;58758.84;;;5.08;100.00
7836;BME280;3963;42.658;23.298;2023-03-01T02:57:21;58787.41;;;5.03;100.00
7836;BME280;3963;42.658;23.298;2023-03-01T02:59:50;58744.34;;;5.04;100.00
7836;BME280;3963;42.658;23.298;2023-03-01T03:02:21;58748.06;;;5.08;100.00
7836;BME280;3963;42.658;23.298;2023-03-01T03:05:02;58753.34;;;5.13;100.00
7836;BME280;3963;42.658;23.298;2023-03-01T03:07:32;58795.09;;;5.03;100.00
7836;BME280;3963;42.658;23.298;2023-03-01T03:09:59;58741.59;;;4.84;100.00
7836;BME280;3963;42.658;23.298;2023-03-01T03:12:27;58767.16;;;4.96;100.00
7836;BME280;3963;42.658;23.298;2023-03-01T03:14:54;58772.47;;;5.01;100.00
7836;BME280;3963;42.658;23.298;2023-03-01T03:17:22;58753.44;;;5.00;100.00
7836;BME280;3963;42.658;23.298;2023-03-01T03:19:49;58723.22;;;5.01;100.00
7836;BME280;3963;42.658;23.298;2023-03-01T03:22:16;58760.63;;;5.00;100.00
7836;BME280;3963;42.658;23.298;2023-03-01T03:24:43;58731.69;;;4.94;100.00
7836;BME280;3963;42.658;23.298;2023-03-01T03:27:10;58757.44;;;4.97;100.00
7836;BME280;3963;42.658;23.298;2023-03-01T03:29:37;58731.53;;;4.89;100.00
7836;BME280;3963;42.658;23.298;2023-03-01T03:32:04;58731.09;;;4.91;100.00
7836;BME280;3963;42.658;23.298;2023-03-01T03:34:32;58739.03;;;4.84;100.00
7836;BME280;3963;42.658;23.298;2023-03-01T03:36:59;58739.41;;;4.80;100.00
7836;BME280;3963;42.658;23.298;2023-03-01T03:39:28;58768.31;;;4.85;100.00
7836;BME280;3963;42.658;23.298;2023-03-01T03:42:00;58751.94;;;4.87;100.00
7836;BME280;3963;42.658;23.298;2023-03-01T03:44:27;58720.81;;;4.91;100.00
7836;BME280;3963;42.658;23.298;2023-03-01T03:47:12;58746.31;;;4.86;100.00
7836;BME280;3963;42.658;23.298;2023-03-01T03:49:40;58717.66;;;4.88;100.00
7836;BME280;3963;42.658;23.298;2023-03-01T03:52:07;58740.56;;;4.83;100.00
7836;BME280;3963;42.658;23.298;2023-03-01T03:54:39;58735.94;;;4.84;100.00
7836;BME280;3963;42.658;23.298;2023-03-01T03:57:05;58769.81;;;4.84;100.00
7836;BME280;3963;42.658;23.298;2023-03-01T03:59:32;58735.44;;;4.83;100.00
7836;BME280;3963;42.658;23.298;2023-03-01T04:02:17;58684.94;;;4.77;100.00
7836;BME280;3963;42.658;23.298;2023-03-01T04:04:48;58719.34;;;4.78;100.00
7836;BME280;3963;42.658;23.298;2023-03-01T04:07:16;58743.38;;;4.76;100.00
7836;BME280;3963;42.658;23.298;2023-03-01T04:09:43;58741.44;;;4.79;100.00
7836;BME280;3963;42.658;23.298;2023-03-01T04:12:10;58708.09;;;4.79;100.00
7836;BME280;3963;42.658;23.298;2023-03-01T04:14:38;58711.38;;;4.70;100.00
7836;BME280;3963;42.658;23.298;2023-03-01T04:17:05;58721.19;;;4.72;100.00
7836;BME280;3963;42.658;23.298;2023-03-01T04:19:32;58718.72;;;4.75;100.00
7836;BME280;3963;42.658;23.298;2023-03-01T04:22:02;58717.50;;;4.69;100.00
7836;BME280;3963;42.658;23.298;2023-03-01T04:24:34;58715.44;;;4.69;100.00
7836;BME280;3963;42.658;23.298;2023-03-01T04:27:01;58701.22;;;4.73;100.00
7836;BME280;3963;42.658;23.298;2023-03-01T04:29:28;58732.16;;;4.78;100.00
7836;BME280;3963;42.658;23.298;2023-03-01T04:31:55;58731.63;;;4.77;100.00
7836;BME280;3963;42.658;23.298;2023-03-01T04:34:21;58741.69;;;4.72;100.00
7836;BME280;3963;42.658;23.298;2023-03-01T04:36:48;58734.09;;;4.75;100.00
7836;BME280;3963;42.658;23.298;2023-03-01T04:39:16;58749.28;;;4.84;100.00
7836;BME280;3963;42.658;23.298;2023-03-01T04:41:43;58749.13;;;4.79;100.00
7836;BME280;3963;42.658;23.298;2023-03-01T04:44:10;58715.53;;;4.86;100.00
7836;BME280;3963;42.658;23.298;2023-03-01T04:46:36;58725.78;;;4.86;100.00
7836;BME280;3963;42.658;23.298;2023-03-01T04:49:04;58759.28;;;4.91;100.00
7836;BME280;3963;42.658;23.298;2023-03-01T04:51:31;58741.88;;;4.92;100.00
7836;BME280;3963;42.658;23.298;2023-03-01T04:53:58;58743.38;;;4.91;100.00
7836;BME280;3963;42.658;23.298;2023-03-01T04:56:27;58733.66;;;4.91;100.00
7836;BME280;3963;42.658;23.298;2023-03-01T04:58:54;58757.59;;;4.87;100.00
7836;BME280;3963;42.658;23.298;2023-03-01T05:01:20;58730.38;;;4.86;100.00
7836;BME280;3963;42.658;23.298;2023-03-01T05:03:49;58730.38;;;4.86;100.00
7836;BME280;3963;42.658;23.298;2023-03-01T05:06:18;58752.84;;;4.83;100.00
7836;BME280;3963;42.658;23.298;2023-03-01T05:08:46;58738.94;;;4.82;100.00
7836;BME280;3963;42.658;23.298;2023-03-01T05:11:12;58749.22;;;4.82;100.00
7836;BME280;3963;42.658;23.298;2023-03-01T05:13:41;58770.44;;;4.87;100.00
7836;BME280;3963;42.658;23.298;2023-03-01T05:16:09;58743.63;;;4.84;100.00
7836;BME280;3963;42.658;23.298;2023-03-01T05:18:36;58682.00;;;4.81;100.00
7836;BME280;3963;42.658;23.298;2023-03-01T05:21:05;58678.47;;;4.83;100.00
7836;BME280;3963;42.658;23.298;2023-03-01T05:23:33;58745.56;;;4.81;100.00
7836;BME280;3963;42.658;23.298;2023-03-01T05:26:01;58729.22;;;4.82;100.00
7836;BME280;3963;42.658;23.298;2023-03-01T05:28:29;58740.28;;;4.76;100.00
7836;BME280;3963;42.658;23.298;2023-03-01T05:30:58;58701.41;;;4.78;100.00
7836;BME280;3963;42.658;23.298;2023-03-01T05:33:26;58721.38;;;4.77;100.00
7836;BME280;3963;42.658;23.298;2023-03-01T05:35:53;58705.38;;;4.74;100.00
7836;BME280;3963;42.658;23.298;2023-03-01T05:38:20;58721.47;;;4.80;100.00
7836;BME280;3963;42.658;23.298;2023-03-01T05:40:48;58738.50;;;4.84;100.00
7836;BME280;3963;42.658;23.298;2023-03-01T05:43:16;58711.38;;;4.85;100.00
7836;BME280;3963;42.658;23.298;2023-03-01T05:45:43;58760.16;;;4.87;100.00
7836;BME280;3963;42.658;23.298;2023-03-01T05:48:12;58725.97;;;4.91;100.00
7836;BME280;3963;42.658;23.298;2023-03-01T05:50:40;58715.16;;;4.91;100.00
7836;BME280;3963;42.658;23.298;2023-03-01T05:53:11;58728.53;;;4.91;100.00
7836;BME280;3963;42.658;23.298;2023-03-01T05:55:38;58768.22;;;4.97;100.00
7836;BME280;3963;42.658;23.298;2023-03-01T05:58:07;58757.59;;;5.02;100.00
7836;BME280;3963;42.658;23.298;2023-03-01T06:00:35;58749.56;;;5.07;100.00
7836;BME280;3963;42.658;23.298;2023-03-01T06:03:03;58771.41;;;5.00;100.00
7836;BME280;3963;42.658;23.298;2023-03-01T06:05:31;58730.53;;;5.06;100.00
7836;BME280;3963;42.658;23.298;2023-03-01T06:07:59;58750.19;;;5.10;100.00
7836;BME280;3963;42.658;23.298;2023-03-01T06:10:26;58750.72;;;4.95;100.00
7836;BME280;3963;42.658;23.298;2023-03-01T06:12:53;58768.13;;;5.10;100.00
7836;BME280;3963;42.658;23.298;2023-03-01T06:15:20;58747.78;;;5.15;100.00
7836;BME280;3963;42.658;23.298;2023-03-01T06:17:48;58788.03;;;5.21;100.00
7836;BME280;3963;42.658;23.298;2023-03-01T06:20:17;58755.03;;;5.17;100.00
7836;BME280;3963;42.658;23.298;2023-03-01T06:22:45;58812.19;;;5.22;100.00
7836;BME280;3963;42.658;23.298;2023-03-01T06:25:15;58783.16;;;5.14;100.00
7836;BME280;3963;42.658;23.298;2023-03-01T06:27:42;58752.66;;;4.92;100.00
7836;BME280;3963;42.658;23.298;2023-03-01T06:30:12;58787.88;;;5.16;100.00
7836;BME280;3963;42.658;23.298;2023-03-01T06:32:39;58805.81;;;5.16;100.00
7836;BME280;3963;42.658;23.298;2023-03-01T06:35:08;58782.81;;;5.19;100.00
7836;BME280;3963;42.658;23.298;2023-03-01T06:37:35;58763.53;;;5.10;100.00
7836;BME280;3963;42.658;23.298;2023-03-01T06:40:04;58790.78;;;5.12;100.00
7836;BME280;3963;42.658;23.298;2023-03-01T06:42:33;58776.00;;;5.15;100.00
7836;BME280;3963;42.658;23.298;2023-03-01T06:45:00;58793.63;;;5.19;100.00
7836;BME280;3963;42.658;23.298;2023-03-01T06:47:27;58783.06;;;5.26;100.00
7836;BME280;3963;42.658;23.298;2023-03-01T06:49:54;58785.38;;;5.19;100.00
7836;BME280;3963;42.658;23.298;2023-03-01T06:52:20;58801.66;;;5.29;100.00
7836;BME280;3963;42.658;23.298;2023-03-01T06:54:47;58802.53;;;5.25;100.00
7836;BME280;3963;42.658;23.298;2023-03-01T06:57:15;58775.28;;;5.24;100.00
7836;BME280;3963;42.658;23.298;2023-03-01T06:59:42;58779.69;;;5.33;100.00
7836;BME280;3963;42.658;23.298;2023-03-01T07:02:10;58795.28;;;5.38;100.00
7836;BME280;3963;42.658;23.298;2023-03-01T07:04:37;58801.47;;;5.39;100.00
7836;BME280;3963;42.658;23.298;2023-03-01T07:07:03;58794.56;;;5.32;100.00
7836;BME280;3963;42.658;23.298;2023-03-01T07:09:30;58788.03;;;5.36;100.00
7836;BME280;3963;42.658;23.298;2023-03-01T07:11:57;58834.13;;;5.48;100.00
7836;BME280;3963;42.658;23.298;2023-03-01T07:14:26;58820.75;;;5.47;100.00
7836;BME280;3963;42.658;23.298;2023-03-01T07:16:53;58819.78;;;5.49;100.00
7836;BME280;3963;42.658;23.298;2023-03-01T07:19:20;58833.78;;;5.52;100.00
7836;BME280;3963;42.658;23.298;2023-03-01T07:21:47;58800.13;;;5.45;100.00
7836;BME280;3963;42.658;23.298;2023-03-01T07:24:13;58802.53;;;5.40;100.00
7836;BME280;3963;42.658;23.298;2023-03-01T07:26:40;58783.06;;;5.41;100.00
7836;BME280;3963;42.658;23.298;2023-03-01T07:29:09;58809.09;;;5.36;100.00
7836;BME280;3963;42.658;23.298;2023-03-01T07:31:37;58803.31;;;5.48;100.00
7836;BME280;3963;42.658;23.298;2023-03-01T07:34:04;58802.25;;;5.47;100.00
7836;BME280;3963;42.658;23.298;2023-03-01T07:36:31;58790.03;;;5.50;100.00
7836;BME280;3963;42.658;23.298;2023-03-01T07:38:58;58818.00;;;5.57;100.00
7836;BME280;3963;42.658;23.298;2023-03-01T07:41:27;58821.38;;;5.65;100.00
7836;BME280;3963;42.658;23.298;2023-03-01T07:43:54;58849.88;;;5.73;100.00
7836;BME280;3963;42.658;23.298;2023-03-01T07:46:21;58809.03;;;5.80;100.00
7836;BME280;3963;42.658;23.298;2023-03-01T07:48:49;58859.88;;;5.94;100.00
7836;BME280;3963;42.658;23.298;2023-03-01T07:51:16;58905.78;;;5.99;100.00
7836;BME280;3963;42.658;23.298;2023-03-01T07:53:46;58873.88;;;5.98;100.00
7836;BME280;3963;42.658;23.298;2023-03-01T07:56:14;58888.41;;;5.87;100.00
7836;BME280;3963;42.658;23.298;2023-03-01T07:58:43;58869.47;;;5.89;100.00
7836;BME280;3963;42.658;23.298;2023-03-01T08:01:12;58880.06;;;5.84;100.00
7836;BME280;3963;42.658;23.298;2023-03-01T08:03:39;58884.53;;;5.93;100.00
7836;BME280;3963;42.658;23.298;2023-03-01T08:06:09;58867.41;;;5.89;100.00
7836;BME280;3963;42.658;23.298;2023-03-01T08:08:37;58884.16;;;5.98;100.00
7836;BME280;3963;42.658;23.298;2023-03-01T08:11:05;58888.94;;;6.02;100.00
7836;BME280;3963;42.658;23.298;2023-03-01T08:13:32;58916.06;;;5.99;100.00
7836;BME280;3963;42.658;23.298;2023-03-01T08:16:03;58813.84;;;5.85;100.00
7836;BME280;3963;42.658;23.298;2023-03-01T08:18:30;58899.66;;;6.00;100.00
7836;BME280;3963;42.658;23.298;2023-03-01T08:21:01;58866.44;;;6.05;100.00
7836;BME280;3963;42.658;23.298;2023-03-01T08:23:29;58921.47;;;6.21;100.00
7836;BME280;3963;42.658;23.298;2023-03-01T08:26:03;58907.88;;;6.30;100.00
7836;BME280;3963;42.658;23.298;2023-03-01T08:28:31;58922.72;;;6.27;100.00
7836;BME280;3963;42.658;23.298;2023-03-01T08:30:58;58922.34;;;6.32;100.00
7836;BME280;3963;42.658;23.298;2023-03-01T08:33:25;58896.00;;;6.29;100.00
7836;BME280;3963;42.658;23.298;2023-03-01T08:35:51;58929.34;;;6.41;100.00
7836;BME280;3963;42.658;23.298;2023-03-01T08:38:18;58912.69;;;6.35;100.00
7836;BME280;3963;42.658;23.298;2023-03-01T08:40:46;58957.25;;;6.60;100.00
7836;BME280;3963;42.658;23.298;2023-03-01T08:43:13;58973.72;;;6.76;100.00
7836;BME280;3963;42.658;23.298;2023-03-01T08:45:40;58990.69;;;6.75;100.00
7836;BME280;3963;42.658;23.298;2023-03-01T08:48:07;58961.78;;;6.72;100.00
7836;BME280;3963;42.658;23.298;2023-03-01T08:50:33;58971.53;;;6.71;100.00
7836;BME280;3963;42.658;23.298;2023-03-01T08:53:00;58970.75;;;6.63;100.00
7836;BME280;3963;42.658;23.298;2023-03-01T08:55:27;58970.13;;;6.60;100.00
7836;BME280;3963;42.658;23.298;2023-03-01T08:57:55;58956.97;;;6.67;100.00
7836;BME280;3963;42.658;23.298;2023-03-01T09:00:24;58975.97;;;6.65;100.00
7836;BME280;3963;42.658;23.298;2023-03-01T09:02:51;58992.63;;;6.86;100.00
7836;BME280;3963;42.658;23.298;2023-03-01T09:05:18;59004.69;;;6.93;100.00
7836;BME280;3963;42.658;23.298;2023-03-01T09:07:45;59039.09;;;7.06;100.00
7836;BME280;3963;42.658;23.298;2023-03-01T09:10:11;58976.22;;;6.88;100.00
7836;BME280;3963;42.658;23.298;2023-03-01T09:12:38;59000.00;;;6.76;100.00
7836;BME280;3963;42.658;23.298;2023-03-01T09:15:08;58987.47;;;6.86;100.00
7836;BME280;3963;42.658;23.298;2023-03-01T09:17:34;58983.38;;;6.87;100.00
7836;BME280;3963;42.658;23.298;2023-03-01T09:20:01;59037.53;;;6.90;100.00
7836;BME280;3963;42.658;23.298;2023-03-01T09:22:32;58978.78;;;6.88;100.00
7836;BME280;3963;42.658;23.298;2023-03-01T09:25:00;59020.22;;;6.95;100.00
7836;BME280;3963;42.658;23.298;2023-03-01T09:27:27;59033.78;;;7.15;100.00
7836;BME280;3963;42.658;23.298;2023-03-01T09:29:53;59076.72;;;7.51;100.00
7836;BME280;3963;42.658;23.298;2023-03-01T09:32:23;59078.44;;;7.55;100.00
7836;BME280;3963;42.658;23.298;2023-03-01T09:34:49;59053.19;;;7.41;100.00
7836;BME280;3963;42.658;23.298;2023-03-01T09:37:30;59079.13;;;7.46;100.00
7836;BME280;3963;42.658;23.298;2023-03-01T09:39:57;59071.94;;;7.32;100.00
7836;BME280;3963;42.658;23.298;2023-03-01T09:42:24;59045.50;;;7.27;100.00
7836;BME280;3963;42.658;23.298;2023-03-01T09:44:56;59055.25;;;7.26;100.00
7836;BME280;3963;42.658;23.298;2023-03-01T09:47:27;59036.09;;;7.22;100.00
7836;BME280;3963;42.658;23.298;2023-03-01T09:50:02;59024.75;;;7.07;100.00
7836;BME280;3963;42.658;23.298;2023-03-01T09:52:35;59034.31;;;7.16;100.00
7836;BME280;3963;42.658;23.298;2023-03-01T09:55:09;59080.56;;;7.43;100.00
7836;BME280;3963;42.658;23.298;2023-03-01T09:57:41;59078.88;;;7.39;100.00
7836;BME280;3963;42.658;23.298;2023-03-01T10:00:33;59023.84;;;7.26;100.00
7836;BME280;3963;42.658;23.298;2023-03-01T10:03:12;59034.13;;;7.11;100.00
7836;BME280;3963;42.658;23.298;2023-03-01T10:05:55;59072.94;;;7.31;100.00
7836;BME280;3963;42.658;23.298;2023-03-01T10:08:32;59075.75;;;7.23;100.00
7836;BME280;3963;42.658;23.298;2023-03-01T10:11:02;59063.78;;;7.19;100.00
7836;BME280;3963;42.658;23.298;2023-03-01T10:13:45;59024.75;;;7.07;100.00
7836;BME280;3963;42.658;23.298;2023-03-01T10:16:16;59040.53;;;7.17;100.00
7836;BME280;3963;42.658;23.298;2023-03-01T10:18:53;59041.41;;;7.13;100.00
7836;BME280;3963;42.658;23.298;2023-03-01T10:21:21;59029.53;;;7.11;100.00
7836;BME280;3963;42.658;23.298;2023-03-01T10:23:50;59024.56;;;7.02;100.00
7836;BME280;3963;42.658;23.298;2023-03-01T10:26:32;59017.66;;;6.95;100.00
7836;BME280;3963;42.658;23.298;2023-03-01T10:29:06;59016.38;;;7.18;100.00
7836;BME280;3963;42.658;23.298;2023-03-01T10:31:39;59058.69;;;7.51;100.00
7836;BME280;3963;42.658;23.298;2023-03-01T10:34:12;59032.88;;;7.34;100.00
7836;BME280;3963;42.658;23.298;2023-03-01T10:36:39;59062.00;;;7.42;100.00
7836;BME280;3963;42.658;23.298;2023-03-01T10:39:13;59043.00;;;7.29;100.00
7836;BME280;3963;42.658;23.298;2023-03-01T10:41:52;59034.84;;;7.31;100.00
7836;BME280;3963;42.658;23.298;2023-03-01T10:44:40;59060.06;;;7.31;100.00
7836;BME280;3963;42.658;23.298;2023-03-01T10:47:14;59048.69;;;7.15;100.00
7836;BME280;3963;42.658;23.298;2023-03-01T10:49:53;59054.19;;;7.25;100.00
7836;BME280;3963;42.658;23.298;2023-03-01T10:52:21;59054.81;;;7.43;100.00
7836;BME280;3963;42.658;23.298;2023-03-01T10:54:54;59059.06;;;7.32;100.00
7836;BME280;3963;42.658;23.298;2023-03-01T10:57:30;59061.13;;;7.32;100.00
7836;BME280;3963;42.658;23.298;2023-03-01T11:00:19;59063.41;;;7.39;100.00
7836;BME280;3963;42.658;23.298;2023-03-01T11:02:50;59077.09;;;7.47;100.00
7836;BME280;3963;42.658;23.298;2023-03-01T11:05:21;59047.44;;;7.38;100.00
7836;BME280;3963;42.658;23.298;2023-03-01T11:07:51;59073.88;;;7.44;100.00
7836;BME280;3963;42.658;23.298;2023-03-01T11:10:20;59071.94;;;7.47;100.00
7836;BME280;3963;42.658;23.298;2023-03-01T11:12:47;59046.28;;;7.35;100.00
7836;BME280;3963;42.658;23.298;2023-03-01T11:15:24;59034.84;;;7.31;100.00
7836;BME280;3963;42.658;23.298;2023-03-01T11:17:52;59087.75;;;7.42;100.00
7836;BME280;3963;42.658;23.298;2023-03-01T11:20:25;59051.88;;;7.33;100.00
7836;BME280;3963;42.658;23.298;2023-03-01T11:22:54;59062.72;;;7.33;100.00
7836;BME280;3963;42.658;23.298;2023-03-01T11:25:25;59082.59;;;7.28;100.00
7836;BME280;3963;42.658;23.298;2023-03-01T11:27:54;59055.69;;;7.39;100.00
7836;BME280;3963;42.658;23.298;2023-03-01T11:30:25;59083.66;;;7.58;100.00
7836;BME280;3963;42.658;23.298;2023-03-01T11:33:05;59062.44;;;7.55;100.00
7836;BME280;3963;42.658;23.298;2023-03-01T11:35:42;59083.31;;;7.48;100.00
7836;BME280;3963;42.658;23.298;2023-03-01T11:38:16;59053.47;;;7.49;100.00
7836;BME280;3963;42.658;23.298;2023-03-01T11:40:49;59060.94;;;7.41;100.00
7836;BME280;3963;42.658;23.298;2023-03-01T11:43:23;59038.56;;;7.35;100.00
7836;BME280;3963;42.658;23.298;2023-03-01T11:46:32;59068.75;;;7.29;100.00
7836;BME280;3963;42.658;23.298;2023-03-01T11:49:17;59040.78;;;7.24;100.00
7836;BME280;3963;42.658;23.298;2023-03-01T11:51:54;59039.72;;;7.09;100.00
7836;BME280;3963;42.658;23.298;2023-03-01T11:54:32;59064.13;;;7.15;100.00
7836;BME280;3963;42.658;23.298;2023-03-01T11:57:11;59022.88;;;7.12;100.00
7836;BME280;3963;42.658;23.298;2023-03-01T11:59:54;59010.44;;;7.10;100.00
7836;BME280;3963;42.658;23.298;2023-03-01T12:02:48;59056.94;;;7.30;100.00
7836;BME280;3963;42.658;23.298;2023-03-01T12:08:34;59059.16;;;7.35;100.00
7836;BME280;3963;42.658;23.298;2023-03-01T12:11:12;59108.72;;;7.52;100.00
7836;BME280;3963;42.658;23.298;2023-03-01T12:14:13;59079.03;;;7.44;100.00
7836;BME280;3963;42.658;23.298;2023-03-01T12:17:11;59112.16;;;7.63;100.00
7836;BME280;3963;42.658;23.298;2023-03-01T12:19:56;59124.16;;;7.67;100.00
7836;BME280;3963;42.658;23.298;2023-03-01T12:22:34;59124.16;;;7.67;100.00
7836;BME280;3963;42.658;23.298;2023-03-01T12:25:21;59110.66;;;7.64;100.00
7836;BME280;3963;42.658;23.298;2023-03-01T12:28:04;59162.63;;;7.76;100.00
7836;BME280;3963;42.658;23.298;2023-03-01T12:30:45;59169.28;;;7.90;100.00
7836;BME280;3963;42.658;23.298;2023-03-01T12:33:22;59152.94;;;7.94;100.00
7836;BME280;3963;42.658;23.298;2023-03-01T12:36:13;59158.97;;;8.05;100.00
7836;BME280;3963;42.658;23.298;2023-03-01T12:38:49;59170.88;;;8.21;100.00
7836;BME280;3963;42.658;23.298;2023-03-01T12:41:38;59207.50;;;8.21;100.00
7836;BME280;3963;42.658;23.298;2023-03-01T12:44:20;59167.94;;;8.11;100.00
7836;BME280;3963;42.658;23.298;2023-03-01T12:47:07;59142.09;;;8.08;100.00
7836;BME280;3963;42.658;23.298;2023-03-01T12:49:40;59186.34;;;8.21;100.00
7836;BME280;3963;42.658;23.298;2023-03-01T12:52:13;59187.59;;;8.27;100.00
7836;BME280;3963;42.658;23.298;2023-03-01T12:54:41;59152.72;;;8.18;100.00
7836;BME280;3963;42.658;23.298;2023-03-01T12:57:16;59181.84;;;8.09;100.00
7836;BME280;3963;42.658;23.298;2023-03-01T12:59:55;59164.50;;;8.15;100.00
7836;BME280;3963;42.658;23.298;2023-03-01T13:02:34;59166.78;;;8.22;100.00
7836;BME280;3963;42.658;23.298;2023-03-01T13:05:19;59181.38;;;8.41;100.00
7836;BME280;3963;42.658;23.298;2023-03-01T13:07:55;59183.88;;;8.23;100.00
7836;BME280;3963;42.658;23.298;2023-03-01T13:10:30;59212.16;;;8.36;100.00
7836;BME280;3963;42.658;23.298;2023-03-01T13:13:13;59209.03;;;8.35;100.00
7836;BME280;3963;42.658;23.298;2023-03-01T13:15:40;59188.03;;;8.40;100.00
7836;BME280;3963;42.658;23.298;2023-03-01T13:18:38;59174.50;;;8.22;100.00
7836;BME280;3963;42.658;23.298;2023-03-01T13:21:04;59120.13;;;8.00;100.00
7836;BME280;3963;42.658;23.298;2023-03-01T13:23:34;59118.28;;;7.91;100.00
7836;BME280;3963;42.658;23.298;2023-03-01T13:26:12;59143.41;;;8.02;100.00
7836;BME280;3963;42.658;23.298;2023-03-01T13:31:59;59155.59;;;7.97;100.00
7836;BME280;3963;42.658;23.298;2023-03-01T13:37:29;59127.88;;;7.85;100.00